Aeroporto :
LOGIN :

Iscrizione | Disclaimer

   EN    FR    IT 

 










Sommario :    VFR   VFR Marginale   IFR   IFR Intensivo   IFR Molto Intensivo
Visibilità : 
Base nubi : 
>= 8 km
>= 3000ft
5 / 8 km
1000 / 3000 ft
1500m / 5 km
500 / 1000 ft
800 / 1500m
200 / 500 ft
< 800m
< 200 ft
Simboli :   Temporali  Nebbia  Neve Forte  Precipitazioni Forti  Vento > 20 kt
SIGMETs :   Varie  Temporali  Ghiacco  Turbolenza  Onda orograficha  Ceneri Vulcaniche







- Altitudine del aeroporto : 160 ft
- Codice IATA : FMO


EDDG - Münster Osnabrück Int.

ULTIMO METAR :
  • 210450Z 17010KT 150V210 CAVOK 21/12 Q1003 BECMG 19015G25KT

METARs OBSOLETI :
  • 210420Z 17010KT 150V210 CAVOK 21/12 Q1003 NOSIG
  • 210350Z 16011KT 140V200 CAVOK 20/12 Q1003 NOSIG
  • 210320Z 16008KT 140V200 CAVOK 19/12 Q1004 NOSIG
  • 210250Z 17006KT 140V200 CAVOK 19/11 Q1005 NOSIG
  • 210220Z 17006KT 140V200 CAVOK 19/11 Q1006 NOSIG

TAF TAF EDDG
Valido dal 21 a 00 ore il 22 a 00 ore UTC


202300Z 2100/2124 18008KT CAVOK
BECMG 2104/2106 20015G25KT
BECMG 2106/2108 23020G35KT
TEMPO 2108/2111 25020G45KT RA
BECMG 2115/2118 24015G25KT
Nessun NOTAM noto per questo aeroporto.



MetMap, La meteo Aeronautica in un colpo d'occhio ! - Copyright ORBIFLY Dicembre 2007 - Disclaimer

ORBIFLY MET'MAP TEAM :

Programmazione e sviluppo : Alexandra Zaïnal
Concezione e sviluppo : Baudouin d'Aumeries
Co-Programmazione e sviluppo : Marc-Olivier Méhu
Supporto tecnico e logistico : Manuel Goepfert
Aiuto per la traduzione : Arnaldo La Scala

Contatto : metmap@orbifly.com




FONTI E CREDITI :

   NOAA